Time;durP1;ratioP1;P1;durP2;ratioP2;P2;SDS_P1;SDS_P2;PMS_P1;PMS_P2;Temp;Humidity;BMP_temperature;BMP_pressure;BME280_temperature;BME280_humidity;BME280_pressure;Samples;Min_cycle;Max_cycle;Signal;HPM_P1;HPM_P2
2022/09/22 00:01:33;;;;;;;9.88;5.07;;;;;;;-145.01;100.00;64805.59;5049753;28;20025;-53
2022/09/22 00:04:02;;;;;;;9.35;4.35;;;;;;;-145.01;100.00;64805.59;5001937;28;20050;-53
2022/09/22 00:06:29;;;;;;;9.98;4.65;;;;;;;-145.01;100.00;64805.59;5051338;28;20546;-53
2022/09/22 00:08:59;;;;;;;8.10;4.57;;;;;;;-145.01;100.00;64805.59;5056062;28;20081;-53
2022/09/22 00:11:27;;;;;;;9.47;3.93;;;;;;;-145.01;100.00;64805.59;5057238;28;20055;-54
2022/09/22 00:13:58;;;;;;;9.50;4.78;;;;;;;-145.01;100.00;64805.59;5059188;28;20160;-55
2022/09/22 00:16:36;;;;;;;9.68;4.05;;;;;;;-145.01;100.00;64805.59;5049467;28;20469;-55
2022/09/22 00:19:03;;;;;;;16.20;4.75;;;;;;;-145.01;100.00;64805.59;5050424;28;20096;-54
2022/09/22 00:21:29;;;;;;;8.65;4.78;;;;;;;-145.01;100.00;64805.59;5054410;28;20131;-53
2022/09/22 00:23:55;;;;;;;9.40;4.65;;;;;;;-145.01;100.00;64805.59;5052281;28;20017;-54
2022/09/22 00:26:21;;;;;;;11.48;5.20;;;;;;;-145.01;100.00;64805.59;5056959;28;20448;-53
2022/09/22 00:28:47;;;;;;;10.73;4.93;;;;;;;-145.01;100.00;64805.59;5063715;28;20028;-53
2022/09/22 00:31:16;;;;;;;10.60;5.30;;;;;;;-145.01;100.00;64805.59;5035027;28;20480;-51
2022/09/22 00:33:42;;;;;;;10.10;5.03;;;;;;;-145.01;100.00;64805.59;5050549;28;20037;-55
2022/09/22 00:36:07;;;;;;;11.25;4.95;;;;;;;-145.01;100.00;64805.59;5052686;28;20368;-51
2022/09/22 00:38:33;;;;;;;10.70;4.68;;;;;;;-145.01;100.00;64805.59;5050616;28;20021;-55
2022/09/22 00:41:00;;;;;;;12.90;5.80;;;;;;;-145.01;100.00;64805.59;5053860;28;20075;-55
2022/09/22 00:43:27;;;;;;;10.70;6.05;;;;;;;-145.01;100.00;64805.59;5056344;28;20099;-55
2022/09/22 00:45:55;;;;;;;12.82;5.93;;;;;;;-145.01;100.00;64805.59;5050778;28;20124;-55
2022/09/22 00:48:21;;;;;;;10.90;5.47;;;;;;;-145.01;100.00;64805.59;5035802;28;20104;-53
2022/09/22 00:50:48;;;;;;;11.50;5.20;;;;;;;-145.01;100.00;64805.59;5055131;28;20383;-54
2022/09/22 00:53:14;;;;;;;8.65;5.30;;;;;;;-145.01;100.00;64805.59;5050433;28;20388;-53
2022/09/22 00:55:45;;;;;;;11.98;5.63;;;;;;;-145.01;100.00;64805.59;5053513;28;20484;-51
2022/09/22 00:58:15;;;;;;;13.50;5.43;;;;;;;-145.01;100.00;64805.59;5058566;28;20770;-54
2022/09/22 01:00:41;;;;;;;10.50;5.03;;;;;;;-145.01;100.00;64805.59;5037672;28;20052;-53
2022/09/22 01:03:10;;;;;;;12.20;6.03;;;;;;;-145.01;100.00;64805.59;5056693;28;20020;-54
2022/09/22 01:05:36;;;;;;;14.73;5.43;;;;;;;-145.01;100.00;64805.59;5048100;28;20372;-54
2022/09/22 01:08:01;;;;;;;12.43;5.45;;;;;;;-145.01;100.00;64805.59;5032737;28;20029;-54
2022/09/22 01:10:27;;;;;;;12.38;5.53;;;;;;;-145.01;100.00;64805.59;5056156;28;20043;-53
2022/09/22 01:13:07;;;;;;;15.50;5.75;;;;;;;-145.01;100.00;64805.59;5054073;28;20090;-54
2022/09/22 01:15:53;;;;;;;14.10;5.85;;;;;;;-145.01;100.00;64805.59;5042423;28;20047;-53
2022/09/22 01:18:33;;;;;;;13.25;5.60;;;;;;;-145.01;100.00;64805.59;5049812;28;20435;-54
2022/09/22 01:21:01;;;;;;;10.48;5.78;;;;;;;-145.01;100.00;64805.59;5054296;28;20063;-55
2022/09/22 01:23:38;;;;;;;9.05;5.32;;;;;;;-145.01;100.00;64805.59;5052991;28;20025;-55
2022/09/22 01:26:34;;;;;;;10.18;5.82;;;;;;;-145.01;100.00;64805.59;5048938;28;20031;-55
2022/09/22 01:29:28;;;;;;;12.07;6.07;;;;;;;-145.01;100.00;64805.59;5049847;28;20115;-54
2022/09/22 01:31:59;;;;;;;13.60;6.22;;;;;;;-145.01;100.00;64805.59;5049672;28;20385;-54
2022/09/22 01:34:52;;;;;;;12.63;6.75;;;;;;;-145.01;100.00;64805.59;5049816;28;20017;-53
2022/09/22 01:37:42;;;;;;;11.20;6.10;;;;;;;-145.01;100.00;64805.59;5042399;28;20036;-52
2022/09/22 01:40:16;;;;;;;16.35;6.72;;;;;;;-145.01;100.00;64805.59;5052305;28;20043;-53
2022/09/22 01:42:48;;;;;;;13.73;5.80;;;;;;;-145.01;100.00;64805.59;5077259;28;20060;-53
2022/09/22 01:45:21;;;;;;;17.98;6.65;;;;;;;-145.01;100.00;64805.59;5055270;28;20502;-52
2022/09/22 01:47:52;;;;;;;12.00;6.00;;;;;;;-145.01;100.00;64805.59;5052583;28;20246;-54
2022/09/22 01:50:23;;;;;;;13.05;5.72;;;;;;;-145.01;100.00;64805.59;5049026;28;20418;-53
2022/09/22 01:52:48;;;;;;;15.32;5.68;;;;;;;-145.01;100.00;64805.59;5036945;28;20025;-54
2022/09/22 01:55:18;;;;;;;12.63;5.75;;;;;;;-145.01;100.00;64805.59;5035909;28;20044;-51
2022/09/22 01:57:46;;;;;;;12.35;6.65;;;;;;;-145.01;100.00;64805.59;5058164;28;20617;-54
2022/09/22 02:00:12;;;;;;;13.38;6.80;;;;;;;-145.01;100.00;64805.59;5054206;28;20128;-52
2022/09/22 02:02:41;;;;;;;14.00;7.95;;;;;;;-145.01;100.00;64805.59;5060244;28;20434;-53
2022/09/22 02:05:31;;;;;;;15.30;7.38;;;;;;;-145.01;100.00;64805.59;5050675;28;20562;-53
2022/09/22 02:07:56;;;;;;;17.02;7.35;;;;;;;-145.01;100.00;64805.59;5047573;28;20086;-54
2022/09/22 02:10:24;;;;;;;15.38;6.93;;;;;;;-145.01;100.00;64805.59;5052265;28;20025;-53
2022/09/22 02:12:51;;;;;;;15.60;6.47;;;;;;;-145.01;100.00;64805.59;5052635;28;20091;-54
2022/09/22 02:18:04;;;;;;;14.68;7.07;;;;;;;-145.01;100.00;64805.59;5055707;28;20110;-54
2022/09/22 02:20:29;;;;;;;12.25;6.40;;;;;;;-145.01;100.00;64805.59;5066073;28;20033;-53
2022/09/22 02:22:54;;;;;;;15.88;7.40;;;;;;;-145.01;100.00;64805.59;5050084;28;20160;-52
2022/09/22 02:25:21;;;;;;;21.45;8.13;;;;;;;-145.01;100.00;64805.59;5049507;28;20021;-51
2022/09/22 02:27:46;;;;;;;12.63;7.90;;;;;;;-145.01;100.00;64805.59;5066004;28;20021;-55
2022/09/22 02:30:12;;;;;;;14.25;7.47;;;;;;;-145.01;100.00;64805.59;5057337;28;20024;-52
2022/09/22 02:32:39;;;;;;;10.57;6.15;;;;;;;-145.01;100.00;64805.59;5056846;28;20031;-54
2022/09/22 02:35:05;;;;;;;15.32;6.28;;;;;;;-145.01;100.00;64805.59;5014305;28;20033;-51
2022/09/22 02:37:56;;;;;;;15.23;7.30;;;;;;;-145.01;100.00;64805.59;5053223;28;20025;-53
2022/09/22 02:40:43;;;;;;;18.35;8.75;;;;;;;-145.01;100.00;64805.59;5051446;28;20041;-53
2022/09/22 02:43:28;;;;;;;15.38;9.98;;;;;;;-145.01;100.00;64805.59;5052811;28;20536;-52
2022/09/22 02:46:10;;;;;;;20.67;10.10;;;;;;;-145.01;100.00;64805.59;5060393;28;20024;-55
2022/09/22 02:48:44;;;;;;;25.73;11.23;;;;;;;-145.01;100.00;64805.59;5057884;28;20048;-55
2022/09/22 02:51:09;;;;;;;22.00;10.07;;;;;;;-145.01;100.00;64805.59;5017026;28;20151;-52
2022/09/22 02:53:35;;;;;;;16.33;8.80;;;;;;;-145.01;100.00;64805.59;5046954;28;20045;-53
2022/09/22 02:56:01;;;;;;;22.60;9.88;;;;;;;-145.01;100.00;64805.59;5049920;28;20446;-52
2022/09/22 02:58:27;;;;;;;16.98;9.77;;;;;;;-145.01;100.00;64805.59;5046930;28;20067;-55
2022/09/22 03:00:52;;;;;;;18.98;10.48;;;;;;;-145.01;100.00;64805.59;5048197;28;20225;-54
2022/09/22 03:03:17;;;;;;;18.33;9.70;;;;;;;-145.01;100.00;64805.59;5052019;28;20025;-55
2022/09/22 03:05:43;;;;;;;18.80;8.82;;;;;;;-145.01;100.00;64805.59;5053364;28;20041;-54
2022/09/22 03:08:08;;;;;;;19.42;8.50;;;;;;;-145.01;100.00;64805.59;5053589;28;20032;-55
2022/09/22 03:10:34;;;;;;;16.33;7.75;;;;;;;-145.01;100.00;64805.59;5048590;28;20037;-55
2022/09/22 03:12:59;;;;;;;13.65;7.65;;;;;;;-145.01;100.00;64805.59;5048546;28;20087;-55
2022/09/22 03:15:24;;;;;;;17.77;9.32;;;;;;;-145.01;100.00;64805.59;5048090;28;20033;-55
2022/09/22 03:17:50;;;;;;;17.90;8.27;;;;;;;-145.01;100.00;64805.59;5051846;28;20029;-55
2022/09/22 03:20:15;;;;;;;19.77;9.57;;;;;;;-145.01;100.00;64805.59;5047560;28;20036;-55
2022/09/22 03:22:41;;;;;;;18.58;9.77;;;;;;;-145.01;100.00;64805.59;5080780;28;20379;-54
2022/09/22 03:25:08;;;;;;;24.70;10.05;;;;;;;-145.01;100.00;64805.59;5057065;28;20209;-52
2022/09/22 03:27:33;;;;;;;14.30;8.45;;;;;;;-145.01;100.00;64805.59;5054807;28;20060;-51
2022/09/22 03:29:59;;;;;;;19.20;9.07;;;;;;;-145.01;100.00;64805.59;5055473;28;20068;-53
2022/09/22 03:32:24;;;;;;;18.17;9.23;;;;;;;-145.01;100.00;64805.59;5054669;28;20039;-55
2022/09/22 03:34:50;;;;;;;15.80;9.50;;;;;;;-145.01;100.00;64805.59;5055399;28;20534;-56
2022/09/22 03:37:15;;;;;;;16.00;7.80;;;;;;;-145.01;100.00;64805.59;5048248;28;20029;-53
2022/09/22 03:39:41;;;;;;;16.48;8.85;;;;;;;-145.01;100.00;64805.59;5052522;28;20024;-56
2022/09/22 03:42:07;;;;;;;12.95;7.97;;;;;;;-145.01;100.00;64805.59;5056162;28;20024;-53
2022/09/22 03:44:32;;;;;;;13.38;8.15;;;;;;;-145.01;100.00;64805.59;5052957;28;20490;-56
2022/09/22 03:46:58;;;;;;;20.15;7.75;;;;;;;-145.01;100.00;64805.59;5054815;28;20025;-54
2022/09/22 03:49:23;;;;;;;15.85;7.35;;;;;;;-145.01;100.00;64805.59;5047876;28;20025;-55
2022/09/22 03:51:49;;;;;;;16.52;7.40;;;;;;;-145.01;100.00;64805.59;5047803;28;20060;-53
2022/09/22 03:54:14;;;;;;;15.32;7.70;;;;;;;-145.01;100.00;64805.59;5053689;28;20036;-53
2022/09/22 03:56:40;;;;;;;17.33;7.50;;;;;;;-145.01;100.00;64805.59;5054320;28;20029;-53
2022/09/22 03:59:05;;;;;;;16.25;8.07;;;;;;;-145.01;100.00;64805.59;5065645;28;20043;-55
2022/09/22 04:01:30;;;;;;;16.25;8.27;;;;;;;-145.01;100.00;64805.59;5058629;28;20263;-55
2022/09/22 04:03:56;;;;;;;22.50;7.50;;;;;;;-145.01;100.00;64805.59;5051103;28;20664;-57
2022/09/22 04:06:21;;;;;;;13.75;7.22;;;;;;;-145.01;100.00;64805.59;5053687;28;20028;-56
2022/09/22 04:08:47;;;;;;;15.93;7.13;;;;;;;-145.01;100.00;64805.59;5058490;28;20032;-56
2022/09/22 04:11:12;;;;;;;14.13;8.13;;;;;;;-145.01;100.00;64805.59;5051877;28;20029;-52
2022/09/22 04:13:38;;;;;;;16.23;6.78;;;;;;;-145.01;100.00;64805.59;5054778;28;20025;-54
2022/09/22 04:16:04;;;;;;;16.52;6.57;;;;;;;-145.01;100.00;64805.59;5058736;28;20062;-51
2022/09/22 04:18:29;;;;;;;15.10;8.00;;;;;;;-145.01;100.00;64805.59;5064764;28;20371;-52
2022/09/22 04:20:57;;;;;;;15.05;8.35;;;;;;;-145.01;100.00;64805.59;5056871;28;20036;-53
2022/09/22 04:23:22;;;;;;;18.13;8.07;;;;;;;-145.01;100.00;64805.59;5055234;28;20041;-54
2022/09/22 04:25:48;;;;;;;17.88;8.00;;;;;;;-145.01;100.00;64805.59;5050015;28;20048;-53
2022/09/22 04:28:13;;;;;;;12.32;6.82;;;;;;;-145.01;100.00;64805.59;5056361;28;20040;-54
2022/09/22 04:30:39;;;;;;;12.80;7.45;;;;;;;-145.01;100.00;64805.59;5061619;28;20368;-55
2022/09/22 04:33:04;;;;;;;19.85;8.20;;;;;;;-145.01;100.00;64805.59;5055221;28;20115;-55
2022/09/22 04:35:33;;;;;;;15.32;7.15;;;;;;;-145.01;100.00;64805.59;5055329;28;20381;-53
2022/09/22 04:37:59;;;;;;;14.02;7.68;;;;;;;-145.01;100.00;64805.59;5051004;28;20029;-54
2022/09/22 04:40:25;;;;;;;22.35;8.38;;;;;;;-145.01;100.00;64805.59;5057429;28;20497;-50
2022/09/22 04:42:50;;;;;;;13.80;6.82;;;;;;;-145.01;100.00;64805.59;5049740;28;20025;-53
2022/09/22 04:45:15;;;;;;;13.25;6.85;;;;;;;-145.01;100.00;64805.59;5055694;28;20083;-53
2022/09/22 04:47:45;;;;;;;13.35;6.47;;;;;;;-145.01;100.00;64805.59;5055376;28;20497;-56
2022/09/22 04:50:11;;;;;;;10.70;6.43;;;;;;;-145.01;100.00;64805.59;5055196;28;20033;-54
2022/09/22 04:52:36;;;;;;;16.27;6.90;;;;;;;-145.01;100.00;64805.59;5054613;28;20028;-56
2022/09/22 04:55:02;;;;;;;15.43;7.00;;;;;;;-145.01;100.00;64805.59;5056217;28;20028;-56
2022/09/22 04:57:27;;;;;;;11.43;7.35;;;;;;;-145.01;100.00;64805.59;5052762;28;20399;-56
2022/09/22 04:59:53;;;;;;;15.38;6.88;;;;;;;-145.01;100.00;64805.59;5049566;28;20025;-52
2022/09/22 05:02:18;;;;;;;11.90;7.25;;;;;;;-145.01;100.00;64805.59;5049497;28;20036;-54
2022/09/22 05:04:43;;;;;;;18.92;7.95;;;;;;;-145.01;100.00;64805.59;5050015;28;20037;-52
2022/09/22 05:07:09;;;;;;;16.27;8.07;;;;;;;-145.01;100.00;64805.59;5050392;28;20395;-55
2022/09/22 05:09:34;;;;;;;14.93;8.68;;;;;;;-145.01;100.00;64805.59;5061314;28;20414;-55
2022/09/22 05:12:00;;;;;;;18.63;9.35;;;;;;;-145.01;100.00;64805.59;5060862;28;20028;-54
2022/09/22 05:14:26;;;;;;;18.02;9.07;;;;;;;-145.01;100.00;64805.59;5058634;28;20033;-54
2022/09/22 05:16:52;;;;;;;14.93;8.07;;;;;;;-145.01;100.00;64805.59;5057903;28;20094;-52
2022/09/22 05:19:18;;;;;;;19.65;8.30;;;;;;;-145.01;100.00;64805.59;5055276;28;20021;-54
2022/09/22 05:21:44;;;;;;;14.30;8.95;;;;;;;-145.01;100.00;64805.59;5050469;28;20078;-53
2022/09/22 05:24:09;;;;;;;19.08;9.05;;;;;;;-145.01;100.00;64805.59;5052107;28;20028;-54
2022/09/22 05:26:35;;;;;;;14.45;8.00;;;;;;;-145.01;100.00;64805.59;5053835;28;20444;-54
2022/09/22 05:29:00;;;;;;;13.80;7.53;;;;;;;-145.01;100.00;64805.59;5057344;28;20411;-54
2022/09/22 05:31:26;;;;;;;16.75;7.38;;;;;;;-145.01;100.00;64805.59;5054479;28;20320;-53
2022/09/22 05:33:51;;;;;;;18.83;8.20;;;;;;;-145.01;100.00;64805.59;5055474;28;20028;-54
2022/09/22 05:36:17;;;;;;;20.77;7.47;;;;;;;-145.01;100.00;64805.59;5054620;28;20490;-53
2022/09/22 05:38:42;;;;;;;18.83;8.73;;;;;;;-145.01;100.00;64805.59;5049766;28;20391;-54
2022/09/22 05:41:07;;;;;;;12.88;7.85;;;;;;;-145.01;100.00;64805.59;5053437;28;20452;-54
2022/09/22 05:43:33;;;;;;;12.73;7.95;;;;;;;-145.01;100.00;64805.59;5053671;28;20051;-52
2022/09/22 05:45:58;;;;;;;17.38;9.07;;;;;;;-145.01;100.00;64805.59;5060710;28;20522;-54
2022/09/22 05:48:24;;;;;;;14.00;7.72;;;;;;;-145.01;100.00;64805.59;5053138;28;20025;-54
2022/09/22 05:50:49;;;;;;;13.07;8.23;;;;;;;-145.01;100.00;64805.59;5047608;28;20036;-53
2022/09/22 05:53:15;;;;;;;13.75;7.60;;;;;;;-145.01;100.00;64805.59;5057162;28;20352;-54
2022/09/22 05:55:41;;;;;;;14.52;7.35;;;;;;;-145.01;100.00;64805.59;5059186;28;20355;-54
2022/09/22 05:58:10;;;;;;;12.35;7.07;;;;;;;-145.01;100.00;64805.59;5053618;28;20020;-54
2022/09/22 06:00:36;;;;;;;12.35;7.03;;;;;;;-145.01;100.00;64805.59;5050507;28;20052;-54
2022/09/22 06:03:01;;;;;;;11.88;7.00;;;;;;;-145.01;100.00;64805.59;5055952;28;20471;-54
2022/09/22 06:05:26;;;;;;;12.52;6.88;;;;;;;-145.01;100.00;64805.59;5048648;28;20029;-55
2022/09/22 06:08:02;;;;;;;15.88;6.80;;;;;;;-145.01;100.00;64805.59;5056004;28;20427;-54
2022/09/22 06:10:34;;;;;;;13.65;6.65;;;;;;;-145.01;100.00;64805.59;5054786;28;20043;-55
2022/09/22 06:13:01;;;;;;;13.00;6.45;;;;;;;-145.01;100.00;64805.59;5053887;28;20028;-55
2022/09/22 06:15:27;;;;;;;10.07;5.60;;;;;;;-145.01;100.00;64805.59;5055188;28;20075;-55
2022/09/22 06:17:53;;;;;;;10.57;5.57;;;;;;;-145.01;100.00;64805.59;5053982;28;20017;-56
2022/09/22 06:20:19;;;;;;;13.82;5.63;;;;;;;-145.01;100.00;64805.59;5048782;28;20136;-55
2022/09/22 06:22:44;;;;;;;17.95;6.32;;;;;;;-145.01;100.00;64805.59;5081095;28;20505;-54
2022/09/22 06:25:10;;;;;;;12.70;7.15;;;;;;;-145.01;100.00;64805.59;5054114;28;20025;-55
2022/09/22 06:27:35;;;;;;;15.48;8.38;;;;;;;-145.01;100.00;64805.59;5055885;28;20025;-55
2022/09/22 06:30:01;;;;;;;17.05;8.18;;;;;;;-145.01;100.00;64805.59;5060434;28;20511;-55
2022/09/22 06:32:26;;;;;;;10.95;4.88;;;;;;;-145.01;100.00;64805.59;5053645;28;20032;-55
2022/09/22 06:34:52;;;;;;;11.82;5.55;;;;;;;-145.01;100.00;64805.59;5057635;28;20021;-56
2022/09/22 06:37:19;;;;;;;11.25;5.93;;;;;;;-145.01;100.00;64805.59;5051972;28;20048;-55
2022/09/22 06:39:44;;;;;;;9.95;5.28;;;;;;;-145.01;100.00;64805.59;5048469;28;20038;-56
2022/09/22 06:42:10;;;;;;;7.18;4.38;;;;;;;-145.01;100.00;64805.59;5052343;28;20382;-55
2022/09/22 06:44:35;;;;;;;9.23;4.55;;;;;;;-145.01;100.00;64805.59;5053637;28;20052;-55
2022/09/22 06:47:04;;;;;;;8.75;4.55;;;;;;;-145.01;100.00;64805.59;5088263;28;20028;-55
2022/09/22 06:49:29;;;;;;;6.93;5.20;;;;;;;-145.01;100.00;64805.59;5050629;28;20037;-56
2022/09/22 06:51:55;;;;;;;8.70;5.13;;;;;;;-145.01;100.00;64805.59;5053780;28;20036;-56
2022/09/22 06:54:20;;;;;;;8.85;4.93;;;;;;;-145.01;100.00;64805.59;5048564;28;20437;-54
2022/09/22 06:56:46;;;;;;;9.57;4.70;;;;;;;-145.01;100.00;64805.59;5048205;28;20032;-55
2022/09/22 06:59:15;;;;;;;8.75;5.00;;;;;;;-145.01;100.00;64805.59;5054624;28;20036;-55
2022/09/22 07:01:41;;;;;;;10.65;4.75;;;;;;;-145.01;100.00;64805.59;5051968;28;20021;-56
2022/09/22 07:04:07;;;;;;;10.38;4.65;;;;;;;-145.01;100.00;64805.59;5054717;28;20479;-55
2022/09/22 07:06:33;;;;;;;7.63;4.72;;;;;;;-145.01;100.00;64805.59;5069569;28;20038;-57
2022/09/22 07:08:59;;;;;;;9.60;4.93;;;;;;;-145.01;100.00;64805.59;5054170;28;20024;-54
2022/09/22 07:11:24;;;;;;;6.85;5.18;;;;;;;-145.01;100.00;64805.59;5048216;28;20032;-55
2022/09/22 07:13:52;;;;;;;9.15;5.05;;;;;;;-145.01;100.00;64805.59;5052662;28;20471;-54
2022/09/22 07:16:18;;;;;;;10.60;5.20;;;;;;;-145.01;100.00;64805.59;5053453;28;20324;-57
2022/09/22 07:18:48;;;;;;;7.65;5.00;;;;;;;-145.01;100.00;64805.59;5054593;28;20025;-54
2022/09/22 07:21:21;;;;;;;9.75;5.00;;;;;;;-145.01;100.00;64805.59;5055224;28;20021;-54
2022/09/22 07:23:48;;;;;;;7.20;4.75;;;;;;;-145.01;100.00;64805.59;5048522;28;20043;-55
2022/09/22 07:26:15;;;;;;;8.80;4.20;;;;;;;-145.01;100.00;64805.59;5052500;28;20110;-55
2022/09/22 07:28:41;;;;;;;8.40;4.57;;;;;;;-145.01;100.00;64805.59;5062317;28;20627;-55
2022/09/22 07:31:08;;;;;;;9.98;4.95;;;;;;;-145.01;100.00;64805.59;5050784;28;20116;-55
2022/09/22 07:33:38;;;;;;;8.82;4.72;;;;;;;-145.01;100.00;64805.59;5055631;28;20379;-55
2022/09/22 07:36:07;;;;;;;10.25;4.45;;;;;;;-145.01;100.00;64805.59;5057163;28;20033;-55
2022/09/22 07:38:35;;;;;;;8.73;4.75;;;;;;;-145.01;100.00;64805.59;5087977;28;20041;-55
2022/09/22 07:41:00;;;;;;;8.55;5.15;;;;;;;-145.01;100.00;64805.59;5056956;28;20129;-55
2022/09/22 07:43:27;;;;;;;13.07;6.00;;;;;;;-145.01;100.00;64805.59;5050709;28;20033;-57
2022/09/22 07:45:56;;;;;;;12.00;5.25;;;;;;;-145.01;100.00;64805.59;5055108;28;20360;-55
2022/09/22 07:48:36;;;;;;;11.68;5.57;;;;;;;-145.01;100.00;64805.59;5055200;28;20024;-55
2022/09/22 07:51:02;;;;;;;13.00;4.75;;;;;;;-145.01;100.00;64805.59;5055265;28;20394;-55
2022/09/22 07:53:27;;;;;;;11.63;4.70;;;;;;;-145.01;100.00;64805.59;5054736;28;20499;-55
2022/09/22 07:55:52;;;;;;;13.70;5.45;;;;;;;-145.01;100.00;64805.59;5059704;28;20078;-55
2022/09/22 07:58:20;;;;;;;15.77;6.03;;;;;;;-145.01;100.00;64805.59;5061191;28;20391;-55
2022/09/22 08:00:45;;;;;;;11.75;5.80;;;;;;;-145.01;100.00;64805.59;5051018;28;20031;-55
2022/09/22 08:03:10;;;;;;;21.42;6.78;;;;;;;-145.01;100.00;64805.59;5051836;28;20025;-58
2022/09/22 08:05:38;;;;;;;21.10;6.05;;;;;;;-145.01;100.00;64805.59;5054692;28;20039;-54
2022/09/22 08:08:04;;;;;;;15.93;6.00;;;;;;;-145.01;100.00;64805.59;5058732;28;20025;-55
2022/09/22 08:10:32;;;;;;;24.17;6.72;;;;;;;-145.01;100.00;64805.59;5060619;28;20028;-55
2022/09/22 08:12:59;;;;;;;15.15;6.05;;;;;;;-145.01;100.00;64805.59;5050781;28;20074;-55
2022/09/22 08:15:25;;;;;;;13.73;6.95;;;;;;;-145.01;100.00;64805.59;5060103;28;20043;-54
2022/09/22 08:17:54;;;;;;;11.30;6.13;;;;;;;-145.01;100.00;64805.59;5055438;28;20021;-55
2022/09/22 08:20:20;;;;;;;15.30;7.13;;;;;;;-145.01;100.00;64805.59;5040392;28;20028;-56
2022/09/22 08:22:51;;;;;;;11.95;6.50;;;;;;;-145.01;100.00;64805.59;5052262;28;20720;-55
2022/09/22 08:25:16;;;;;;;22.48;7.35;;;;;;;-145.01;100.00;64805.59;5051638;28;20387;-55
2022/09/22 08:27:41;;;;;;;15.73;7.78;;;;;;;-145.01;100.00;64805.59;5057715;28;20033;-55
2022/09/22 08:30:09;;;;;;;18.15;7.90;;;;;;;-145.01;100.00;64805.59;5056622;28;20021;-54
2022/09/22 08:32:35;;;;;;;14.85;8.15;;;;;;;-145.01;100.00;64805.59;5056250;28;20553;-55
2022/09/22 08:35:02;;;;;;;12.18;7.32;;;;;;;-145.01;100.00;64805.59;5058443;28;20032;-56
2022/09/22 08:37:28;;;;;;;10.82;6.82;;;;;;;-145.01;100.00;64805.59;5051679;28;20035;-55
2022/09/22 08:39:54;;;;;;;16.75;7.05;;;;;;;-145.01;100.00;64805.59;5051226;28;20029;-55
2022/09/22 08:42:21;;;;;;;13.43;6.35;;;;;;;-145.01;100.00;64805.59;5055106;28;20104;-55
2022/09/22 08:45:01;;;;;;;11.07;6.25;;;;;;;-145.01;100.00;64805.59;5053848;28;20039;-56
2022/09/22 08:53:45;;;;;;;14.23;6.65;;;;;;;-145.01;100.00;64805.59;5038456;28;20595;-54
2022/09/22 08:56:39;;;;;;;10.93;5.50;;;;;;;-145.01;100.00;64805.59;5049778;28;20174;-55
2022/09/22 08:59:18;;;;;;;9.55;5.97;;;;;;;-145.01;100.00;64805.59;5052693;28;20033;-55
2022/09/22 09:02:23;;;;;;;11.48;5.53;;;;;;;-145.01;100.00;64805.59;5053605;28;20033;-55
2022/09/22 09:05:01;;;;;;;12.68;5.72;;;;;;;-145.01;100.00;64805.59;5049880;28;20033;-55
2022/09/22 09:07:57;;;;;;;17.10;6.40;;;;;;;-145.01;100.00;64805.59;5049801;28;20237;-55
2022/09/22 09:10:28;;;;;;;12.15;5.95;;;;;;;-145.01;100.00;64805.59;5055940;28;20096;-55
2022/09/22 09:13:10;;;;;;;19.90;9.18;;;;;;;-145.01;100.00;64805.59;5055633;28;20276;-55
2022/09/22 09:15:54;;;;;;;10.00;6.72;;;;;;;-145.01;100.00;64805.59;5057043;28;20021;-55
2022/09/22 09:18:24;;;;;;;19.73;7.50;;;;;;;-145.01;100.00;64805.59;5055706;28;20108;-55
2022/09/22 09:20:50;;;;;;;16.10;6.13;;;;;;;-145.01;100.00;64805.59;5060693;28;20111;-55
2022/09/22 09:23:32;;;;;;;15.02;7.38;;;;;;;-145.01;100.00;64805.59;5052404;28;20037;-55
2022/09/22 09:25:59;;;;;;;12.30;6.13;;;;;;;-145.01;100.00;64805.59;5050843;28;20021;-55
2022/09/22 09:28:41;;;;;;;14.35;5.50;;;;;;;-145.01;100.00;64805.59;5054724;28;20037;-55
2022/09/22 09:31:35;;;;;;;11.60;5.88;;;;;;;-145.01;100.00;64805.59;5050486;28;20017;-55
2022/09/22 09:34:16;;;;;;;15.98;5.55;;;;;;;-145.01;100.00;64805.59;5054535;28;20483;-55
2022/09/22 09:36:57;;;;;;;13.68;5.00;;;;;;;-145.01;100.00;64805.59;5048790;28;20029;-55
2022/09/22 09:39:30;;;;;;;11.63;4.90;;;;;;;-145.01;100.00;64805.59;5049790;28;20031;-55
2022/09/22 09:41:56;;;;;;;9.55;4.75;;;;;;;-145.01;100.00;64805.59;5059826;28;20486;-55
2022/09/22 09:44:27;;;;;;;12.82;5.13;;;;;;;-145.01;100.00;64805.59;5065045;28;20025;-55
2022/09/22 09:47:13;;;;;;;12.15;4.68;;;;;;;-145.01;100.00;64805.59;5050047;28;20534;-56
2022/09/22 09:49:38;;;;;;;14.05;5.80;;;;;;;-145.01;100.00;64805.59;5056274;28;20037;-55
2022/09/22 09:52:08;;;;;;;11.75;6.10;;;;;;;-145.01;100.00;64805.59;5054759;28;20039;-55
2022/09/22 09:54:36;;;;;;;9.60;5.40;;;;;;;-145.01;100.00;64805.59;5032603;28;20009;-55
2022/09/22 09:57:22;;;;;;;11.32;5.72;;;;;;;-145.01;100.00;64805.59;5054939;28;20115;-54
2022/09/22 10:02:49;;;;;;;18.63;6.60;;;;;;;-145.01;100.00;64805.59;5049418;28;20040;-55
2022/09/22 10:05:14;;;;;;;13.30;5.47;;;;;;;-145.01;100.00;64805.59;5052436;28;20178;-54
2022/09/22 10:07:47;;;;;;;11.05;5.53;;;;;;;-145.01;100.00;64805.59;5055345;28;20055;-55
2022/09/22 10:10:28;;;;;;;17.52;5.68;;;;;;;-145.01;100.00;64805.59;5047680;28;20049;-55
2022/09/22 10:12:55;;;;;;;21.63;5.97;;;;;;;-145.01;100.00;64805.59;5061854;28;20518;-55
2022/09/22 10:15:24;;;;;;;14.90;5.50;;;;;;;-145.01;100.00;64805.59;5081321;28;20119;-54
2022/09/22 10:17:50;;;;;;;22.55;5.90;;;;;;;-145.01;100.00;64805.59;5053522;28;20029;-55
2022/09/22 10:20:22;;;;;;;16.58;6.22;;;;;;;-145.01;100.00;64805.59;5051225;28;20514;-55
2022/09/22 10:22:48;;;;;;;23.38;5.82;;;;;;;-145.01;100.00;64805.59;5048097;28;20367;-55
2022/09/22 10:25:30;;;;;;;16.15;6.38;;;;;;;-145.01;100.00;64805.59;5054031;28;20391;-55
2022/09/22 10:28:13;;;;;;;25.30;6.55;;;;;;;-145.01;100.00;64805.59;5048247;28;20383;-55
2022/09/22 10:30:39;;;;;;;18.98;6.65;;;;;;;-145.01;100.00;64805.59;5053871;28;20032;-55
2022/09/22 10:33:14;;;;;;;18.45;5.90;;;;;;;-145.01;100.00;64805.59;5038699;28;20029;-54
2022/09/22 10:36:03;;;;;;;17.92;7.05;;;;;;;-145.01;100.00;64805.59;5047416;28;20456;-55
2022/09/22 10:38:32;;;;;;;18.95;6.15;;;;;;;-145.01;100.00;64805.59;5042730;28;20124;-55
2022/09/22 10:41:06;;;;;;;18.83;6.00;;;;;;;-145.01;100.00;64805.59;5052995;28;20519;-56
2022/09/22 10:43:50;;;;;;;17.52;5.75;;;;;;;-145.01;100.00;64805.59;5088100;28;20029;-55
2022/09/22 10:46:33;;;;;;;16.35;4.93;;;;;;;-145.01;100.00;64805.59;5052605;28;20128;-55
2022/09/22 10:49:22;;;;;;;12.38;5.50;;;;;;;-145.01;100.00;64805.59;5056099;28;20042;-54
2022/09/22 10:52:11;;;;;;;20.80;5.77;;;;;;;-145.01;100.00;64805.59;5059487;28;20029;-55
2022/09/22 10:54:40;;;;;;;21.15;5.10;;;;;;;-145.01;100.00;64805.59;5048399;28;20058;-55
2022/09/22 10:57:11;;;;;;;14.07;5.20;;;;;;;-145.01;100.00;64805.59;5049269;28;20029;-56
2022/09/22 10:59:55;;;;;;;20.63;6.00;;;;;;;-145.01;100.00;64805.59;5088493;28;20044;-54
2022/09/22 11:02:44;;;;;;;25.35;5.30;;;;;;;-145.01;100.00;64805.59;5060819;28;20028;-55
2022/09/22 11:05:15;;;;;;;21.55;6.32;;;;;;;-145.01;100.00;64805.59;5029152;28;20091;-54
2022/09/22 11:13:46;;;;;;;16.73;5.78;;;;;;;-145.01;100.00;64805.59;5058973;28;20044;-54
2022/09/22 11:16:40;;;;;;;8.57;4.18;;;;;;;-145.01;100.00;64805.59;5053033;28;20452;-54
2022/09/22 11:19:39;;;;;;;13.52;4.70;;;;;;;-145.01;100.00;64805.59;5033715;28;20056;-55
2022/09/22 11:22:11;;;;;;;13.27;4.75;;;;;;;-145.01;100.00;64805.59;5052951;28;20029;-54
2022/09/22 11:25:14;;;;;;;12.25;4.20;;;;;;;-145.01;100.00;64805.59;5052559;28;20029;-53
2022/09/22 11:27:58;;;;;;;12.25;3.88;;;;;;;-145.01;100.00;64805.59;5051864;28;20718;-54
2022/09/22 11:30:23;;;;;;;15.65;4.30;;;;;;;-145.01;100.00;64805.59;5066585;28;20028;-55
2022/09/22 11:33:15;;;;;;;13.15;3.92;;;;;;;-145.01;100.00;64805.59;5043287;28;20079;-54